Time;durP1;ratioP1;P1;durP2;ratioP2;P2;SDS_P1;SDS_P2;PMS_P1;PMS_P2;Temp;Humidity;BMP_temperature;BMP_pressure;BME280_temperature;BME280_humidity;BME280_pressure;Samples;Min_cycle;Max_cycle;Signal;HPM_P1;HPM_P2
2023/07/25 00:01:02;;;;;;;2.67;1.03;;;17.10;99.90;;;;;;5053060;28;20444;-69
2023/07/25 00:03:28;;;;;;;1.50;1.40;;;17.20;99.90;;;;;;5053881;28;20403;-68
2023/07/25 00:05:53;;;;;;;1.47;1.33;;;17.10;99.90;;;;;;5053394;28;20487;-70
2023/07/25 00:08:19;;;;;;;0.63;0.57;;;17.00;99.90;;;;;;5053056;28;20190;-69
2023/07/25 00:10:45;;;;;;;0.90;0.83;;;17.00;99.90;;;;;;5053035;28;20175;-69
2023/07/25 00:13:10;;;;;;;0.83;0.83;;;17.10;99.90;;;;;;5053240;28;20325;-69
2023/07/25 00:15:36;;;;;;;0.70;0.70;;;17.20;99.90;;;;;;5053395;28;20499;-70
2023/07/25 00:18:02;;;;;;;1.03;1.03;;;17.20;99.90;;;;;;5053193;28;20533;-69
2023/07/25 00:20:28;;;;;;;0.63;0.63;;;17.20;99.90;;;;;;5053303;28;20401;-69
2023/07/25 00:22:54;;;;;;;1.07;0.90;;;17.20;99.90;;;;;;5052933;28;20770;-69
2023/07/25 00:25:20;;;;;;;1.47;1.43;;;17.30;99.90;;;;;;5057088;28;20257;-69
2023/07/25 00:27:45;;;;;;;0.87;0.50;;;17.60;99.90;;;;;;5057132;28;20198;-68
2023/07/25 00:30:11;;;;;;;1.13;1.00;;;17.30;99.90;;;;;;5057545;28;20412;-69
2023/07/25 00:32:36;;;;;;;0.73;0.73;;;17.30;99.90;;;;;;5056634;28;20232;-69
2023/07/25 00:35:02;;;;;;;1.23;1.13;;;17.20;99.90;;;;;;5056952;28;20162;-70
2023/07/25 00:37:29;;;;;;;1.10;1.10;;;17.20;99.90;;;;;;5056897;28;20699;-69
2023/07/25 00:39:55;;;;;;;1.23;1.13;;;17.10;99.90;;;;;;5056754;28;20435;-68
2023/07/25 00:42:21;;;;;;;1.63;1.57;;;17.00;99.90;;;;;;5056631;28;20924;-70
2023/07/25 00:44:47;;;;;;;0.90;0.90;;;17.00;99.90;;;;;;5056929;28;20408;-68
2023/07/25 00:47:14;;;;;;;3.20;2.90;;;17.00;99.90;;;;;;5056803;28;20975;-70
2023/07/25 00:49:42;;;;;;;0.77;0.77;;;17.10;99.90;;;;;;5056475;28;20838;-69
2023/07/25 00:52:08;;;;;;;0.40;0.40;;;17.10;99.90;;;;;;5056443;28;20804;-69
2023/07/25 00:54:37;;;;;;;0.70;0.70;;;17.10;99.90;;;;;;5056656;28;20404;-69
2023/07/25 00:57:03;;;;;;;0.73;0.73;;;17.00;99.90;;;;;;5056570;28;20498;-70
2023/07/25 00:59:29;;;;;;;1.10;1.00;;;16.90;99.90;;;;;;5056360;28;20928;-68
2023/07/25 01:01:54;;;;;;;0.57;0.50;;;16.90;99.90;;;;;;5056247;28;20552;-70
2023/07/25 01:04:20;;;;;;;0.57;0.57;;;17.00;99.90;;;;;;5056406;28;20257;-70
2023/07/25 01:06:47;;;;;;;2.00;1.20;;;17.00;99.90;;;;;;5056711;28;20194;-68
2023/07/25 01:09:12;;;;;;;0.50;0.50;;;17.10;99.90;;;;;;5056303;28;20185;-69
2023/07/25 01:11:38;;;;;;;1.63;1.53;;;17.10;99.90;;;;;;5056101;28;20964;-69
2023/07/25 01:14:04;;;;;;;0.67;0.60;;;17.00;99.90;;;;;;5056208;28;20198;-69
2023/07/25 01:16:30;;;;;;;0.83;0.83;;;16.90;99.90;;;;;;5056333;28;20256;-67
2023/07/25 01:18:56;;;;;;;0.60;0.60;;;16.90;99.90;;;;;;5056410;28;20538;-69
2023/07/25 01:21:22;;;;;;;2.10;0.80;;;16.90;99.90;;;;;;5056031;28;20397;-70
2023/07/25 01:23:49;;;;;;;1.37;1.27;;;17.00;99.90;;;;;;5055998;28;20409;-68
2023/07/25 01:26:16;;;;;;;0.80;0.80;;;17.00;99.90;;;;;;5056170;28;20829;-68
2023/07/25 01:28:42;;;;;;;1.97;1.37;;;16.90;99.90;;;;;;5055930;28;20923;-69
2023/07/25 01:31:07;;;;;;;3.70;3.10;;;16.90;99.90;;;;;;5055713;28;20436;-69
2023/07/25 01:33:33;;;;;;;0.77;0.60;;;17.30;99.90;;;;;;5056023;28;20219;-70
2023/07/25 01:36:00;;;;;;;0.87;0.87;;;17.00;99.90;;;;;;5054863;28;20166;-68
2023/07/25 01:38:25;;;;;;;0.50;0.50;;;17.00;99.90;;;;;;5055913;28;20183;-69
2023/07/25 01:40:51;;;;;;;0.60;0.60;;;16.90;99.90;;;;;;5055417;28;20944;-69
2023/07/25 01:43:17;;;;;;;1.93;1.83;;;16.80;99.90;;;;;;5055640;28;20166;-67
2023/07/25 01:45:42;;;;;;;1.57;1.03;;;16.80;99.90;;;;;;5055907;28;20167;-70
2023/07/25 01:48:08;;;;;;;3.97;3.30;;;16.80;99.90;;;;;;5055605;28;20186;-68
2023/07/25 01:50:33;;;;;;;0.70;0.70;;;16.90;99.90;;;;;;5055507;28;20182;-68
2023/07/25 01:52:59;;;;;;;0.80;0.50;;;16.90;99.90;;;;;;5055234;28;20261;-70
2023/07/25 01:55:25;;;;;;;1.30;0.40;;;16.80;99.90;;;;;;5055716;28;20521;-69
2023/07/25 01:57:50;;;;;;;3.40;3.17;;;17.00;99.90;;;;;;5055489;28;20174;-69
2023/07/25 02:00:16;;;;;;;1.27;1.23;;;16.70;99.90;;;;;;5055552;28;20650;-69
2023/07/25 02:02:42;;;;;;;1.80;0.80;;;16.80;99.90;;;;;;5055107;28;20170;-69
2023/07/25 02:05:07;;;;;;;2.40;1.37;;;16.80;99.90;;;;;;5055510;28;20188;-69
2023/07/25 02:07:33;;;;;;;0.80;0.80;;;16.80;99.90;;;;;;5055448;28;20173;-67
2023/07/25 02:09:59;;;;;;;1.47;0.70;;;16.80;99.90;;;;;;5055126;28;20190;-69
2023/07/25 02:12:28;;;;;;;0.83;0.80;;;16.90;99.90;;;;;;5054866;28;20553;-69
2023/07/25 02:14:54;;;;;;;1.33;1.23;;;16.80;99.90;;;;;;5055227;28;20189;-69
2023/07/25 02:17:19;;;;;;;0.60;0.60;;;16.80;99.90;;;;;;5055245;28;20873;-69
2023/07/25 02:19:45;;;;;;;0.40;0.40;;;16.70;99.90;;;;;;5055082;28;20197;-68
2023/07/25 02:22:11;;;;;;;0.83;0.57;;;16.70;99.90;;;;;;5055022;28;20700;-68
2023/07/25 02:24:37;;;;;;;0.40;0.40;;;16.70;99.90;;;;;;5054861;28;20432;-69
2023/07/25 02:27:03;;;;;;;0.60;0.60;;;16.70;99.90;;;;;;5054982;28;20186;-69
2023/07/25 02:29:28;;;;;;;1.53;1.07;;;16.80;99.90;;;;;;5054656;28;20202;-69
2023/07/25 02:31:54;;;;;;;1.50;0.97;;;16.90;99.90;;;;;;5054537;28;20444;-69
2023/07/25 02:34:19;;;;;;;0.60;0.60;;;16.90;99.90;;;;;;5054749;28;20171;-69
2023/07/25 02:36:45;;;;;;;1.10;0.87;;;16.80;99.90;;;;;;5054614;28;20584;-69
2023/07/25 02:39:11;;;;;;;0.60;0.60;;;16.70;99.90;;;;;;5054480;28;20200;-69
2023/07/25 02:41:36;;;;;;;1.40;1.20;;;16.80;99.90;;;;;;5054356;28;20247;-70
2023/07/25 02:44:03;;;;;;;0.90;0.90;;;16.80;99.90;;;;;;5054672;28;20254;-68
2023/07/25 02:46:29;;;;;;;1.00;1.00;;;16.70;99.90;;;;;;5054464;28;20252;-69
2023/07/25 02:48:55;;;;;;;1.63;1.50;;;16.60;99.90;;;;;;5054508;28;20460;-68
2023/07/25 02:51:20;;;;;;;1.13;1.13;;;16.70;99.90;;;;;;5054138;28;20551;-68
2023/07/25 02:53:46;;;;;;;1.37;1.37;;;16.70;99.90;;;;;;5054918;28;20177;-69
2023/07/25 02:56:11;;;;;;;1.13;1.13;;;16.80;99.90;;;;;;5054417;28;20174;-68
2023/07/25 02:58:37;;;;;;;5.30;2.00;;;16.90;99.90;;;;;;5054117;28;20681;-69
2023/07/25 03:01:03;;;;;;;0.50;0.50;;;16.90;99.90;;;;;;5053927;28;20201;-68
2023/07/25 03:03:29;;;;;;;0.43;0.43;;;17.00;99.90;;;;;;5054183;28;20589;-70
2023/07/25 03:05:54;;;;;;;0.70;0.60;;;17.00;99.90;;;;;;5054182;28;20177;-69
2023/07/25 03:08:21;;;;;;;1.13;1.03;;;17.00;99.90;;;;;;5054184;28;20243;-69
2023/07/25 03:10:46;;;;;;;1.63;1.03;;;17.10;99.90;;;;;;5053809;28;20222;-69
2023/07/25 03:13:12;;;;;;;0.80;0.60;;;17.10;99.90;;;;;;5053926;28;20821;-69
2023/07/25 03:15:38;;;;;;;2.80;1.47;;;17.10;99.90;;;;;;5054043;28;20188;-69
2023/07/25 03:18:04;;;;;;;0.57;0.57;;;17.00;99.90;;;;;;5053832;28;20196;-68
2023/07/25 03:20:30;;;;;;;0.50;0.50;;;17.00;99.90;;;;;;5053862;28;20415;-69
2023/07/25 03:22:55;;;;;;;8.43;1.33;;;17.10;99.90;;;;;;5053759;28;20409;-68
2023/07/25 03:25:21;;;;;;;1.30;1.20;;;17.10;99.90;;;;;;5053831;28;20178;-68
2023/07/25 03:27:46;;;;;;;0.30;0.30;;;17.30;99.90;;;;;;5053606;28;20526;-69
2023/07/25 03:30:12;;;;;;;0.50;0.50;;;17.10;99.90;;;;;;5049094;28;20158;-68
2023/07/25 03:32:38;;;;;;;2.20;1.47;;;17.10;99.90;;;;;;5053440;28;20210;-68
2023/07/25 03:35:04;;;;;;;0.40;0.40;;;17.00;99.90;;;;;;5052854;28;20177;-69
2023/07/25 03:37:30;;;;;;;0.70;0.70;;;17.10;99.90;;;;;;5053343;28;20249;-69
2023/07/25 03:39:55;;;;;;;0.40;0.40;;;17.20;99.90;;;;;;5053639;28;20518;-69
2023/07/25 03:42:21;;;;;;;0.50;0.50;;;17.20;99.90;;;;;;5053329;28;20260;-69
2023/07/25 03:44:47;;;;;;;2.30;1.83;;;17.20;99.90;;;;;;5053400;28;20178;-68
2023/07/25 03:47:13;;;;;;;0.70;0.70;;;17.10;99.90;;;;;;5053448;28;20506;-69
2023/07/25 03:49:38;;;;;;;1.00;0.90;;;17.10;99.90;;;;;;5053306;28;20498;-70
2023/07/25 03:52:05;;;;;;;1.37;1.27;;;17.00;99.90;;;;;;5053101;28;20198;-69
2023/07/25 03:54:30;;;;;;;0.70;0.70;;;17.10;99.90;;;;;;5053359;28;20249;-69
2023/07/25 03:56:56;;;;;;;1.50;1.13;;;17.00;99.90;;;;;;5053374;28;20488;-69
2023/07/25 03:59:22;;;;;;;2.10;1.83;;;17.00;99.90;;;;;;5052871;28;20190;-68
2023/07/25 04:01:47;;;;;;;0.53;0.53;;;17.00;99.90;;;;;;5053156;28;20232;-70
2023/07/25 04:04:13;;;;;;;0.60;0.50;;;16.90;99.90;;;;;;5053307;28;20224;-69
2023/07/25 04:06:39;;;;;;;1.13;0.80;;;16.80;99.90;;;;;;5053615;28;20170;-69
2023/07/25 04:09:05;;;;;;;1.17;1.00;;;16.70;99.90;;;;;;5053197;28;20201;-69
2023/07/25 04:11:31;;;;;;;0.80;0.80;;;16.80;99.90;;;;;;5052882;28;20220;-68
2023/07/25 04:13:56;;;;;;;0.93;0.93;;;16.70;99.90;;;;;;5053235;28;20401;-69
2023/07/25 04:16:22;;;;;;;1.77;1.03;;;16.70;99.90;;;;;;5053216;28;20177;-69
2023/07/25 04:18:48;;;;;;;0.87;0.63;;;16.70;99.90;;;;;;5053055;28;20428;-68
2023/07/25 04:21:14;;;;;;;0.93;0.83;;;16.60;99.90;;;;;;5052914;28;20175;-67
2023/07/25 04:23:39;;;;;;;0.93;0.67;;;16.60;99.90;;;;;;5053015;28;20492;-70
2023/07/25 04:26:05;;;;;;;1.07;0.70;;;16.50;99.90;;;;;;5053046;28;20166;-70
2023/07/25 04:28:33;;;;;;;0.90;0.90;;;16.40;99.90;;;;;;5053028;28;20201;-68
2023/07/25 04:30:58;;;;;;;1.80;0.83;;;16.30;99.90;;;;;;5052769;28;20228;-68
2023/07/25 04:33:24;;;;;;;0.60;0.60;;;16.20;99.90;;;;;;5052924;28;20884;-69
2023/07/25 04:35:50;;;;;;;0.40;0.40;;;16.30;99.90;;;;;;5052832;28;20253;-69
2023/07/25 04:38:15;;;;;;;0.83;0.83;;;16.50;99.90;;;;;;5052811;28;20210;-68
2023/07/25 04:40:44;;;;;;;0.63;0.63;;;16.60;99.90;;;;;;5052703;28;20174;-68
2023/07/25 04:43:10;;;;;;;0.50;0.50;;;16.50;99.90;;;;;;5052944;28;20521;-69
2023/07/25 04:45:36;;;;;;;0.73;0.73;;;16.50;99.90;;;;;;5052989;28;20432;-69
2023/07/25 04:48:02;;;;;;;4.70;1.37;;;16.60;99.90;;;;;;5052683;28;20908;-67
2023/07/25 04:50:28;;;;;;;1.57;1.47;;;16.70;99.90;;;;;;5052799;28;20420;-69
2023/07/25 04:52:53;;;;;;;0.60;0.60;;;16.70;99.90;;;;;;5052445;28;20456;-69
2023/07/25 04:55:19;;;;;;;0.60;0.60;;;16.70;99.90;;;;;;5053040;28;20171;-69
2023/07/25 04:57:44;;;;;;;0.77;0.77;;;16.40;99.90;;;;;;5052672;28;20171;-69
2023/07/25 05:00:11;;;;;;;1.23;0.83;;;16.60;99.90;;;;;;5052590;28;20586;-69
2023/07/25 05:02:36;;;;;;;0.70;0.70;;;16.80;99.90;;;;;;5052424;28;20184;-68
2023/07/25 05:05:02;;;;;;;0.40;0.40;;;17.00;99.90;;;;;;5052587;28;20939;-69
2023/07/25 05:07:27;;;;;;;0.80;0.80;;;17.00;99.90;;;;;;5052643;28;20526;-69
2023/07/25 05:09:53;;;;;;;0.40;0.40;;;17.10;99.90;;;;;;5052628;28;20190;-69
2023/07/25 05:12:19;;;;;;;1.57;1.47;;;17.30;99.90;;;;;;5055977;28;20201;-69
2023/07/25 05:14:44;;;;;;;1.07;0.63;;;17.40;99.90;;;;;;5056317;28;20535;-67
2023/07/25 05:17:10;;;;;;;0.73;0.70;;;17.50;99.90;;;;;;5056119;28;20292;-69
2023/07/25 05:19:37;;;;;;;0.73;0.73;;;17.50;99.90;;;;;;5056028;28;20194;-70
2023/07/25 05:22:02;;;;;;;1.50;1.40;;;17.60;99.90;;;;;;5055852;28;20261;-69
2023/07/25 05:24:28;;;;;;;0.50;0.50;;;17.60;99.90;;;;;;5056081;28;20497;-69
2023/07/25 05:26:54;;;;;;;3.20;1.20;;;17.60;99.90;;;;;;5055774;28;20178;-69
2023/07/25 05:29:20;;;;;;;0.60;0.60;;;17.60;99.90;;;;;;5055883;28;20517;-69
2023/07/25 05:31:45;;;;;;;1.33;0.60;;;17.60;99.90;;;;;;5055679;28;20251;-70
2023/07/25 05:34:11;;;;;;;0.50;0.50;;;17.50;99.90;;;;;;5055851;28;20170;-69
2023/07/25 05:36:37;;;;;;;0.70;0.70;;;17.50;99.90;;;;;;5056128;28;20646;-69
2023/07/25 05:39:02;;;;;;;1.00;0.90;;;17.40;99.90;;;;;;5055669;28;20232;-69
2023/07/25 05:41:28;;;;;;;6.03;1.30;;;17.40;99.90;;;;;;5055568;28;20211;-69
2023/07/25 05:43:53;;;;;;;0.50;0.47;;;17.40;99.90;;;;;;5055787;28;20177;-69
2023/07/25 05:46:19;;;;;;;0.50;0.50;;;17.20;99.90;;;;;;5055790;28;20177;-68
2023/07/25 05:48:45;;;;;;;1.90;0.47;;;17.20;99.90;;;;;;5055509;28;20197;-68
2023/07/25 05:51:10;;;;;;;1.77;0.90;;;17.20;99.90;;;;;;5055164;28;20228;-69
2023/07/25 05:53:36;;;;;;;0.67;0.67;;;17.30;99.90;;;;;;5055524;28;20523;-70
2023/07/25 05:56:02;;;;;;;0.33;0.33;;;17.50;99.90;;;;;;5055399;28;20163;-68
2023/07/25 05:58:28;;;;;;;0.47;0.40;;;17.90;99.90;;;;;;5054116;28;20274;-69
2023/07/25 06:00:54;;;;;;;0.97;0.97;;;18.20;99.90;;;;;;5054143;28;20182;-71
2023/07/25 06:03:20;;;;;;;1.03;0.80;;;18.40;99.90;;;;;;5054587;28;20405;-70
2023/07/25 06:05:46;;;;;;;0.87;0.70;;;;;;;;;;5055684;28;20262;-70
2023/07/25 06:08:12;;;;;;;0.73;0.73;;;18.50;99.90;;;;;;5055456;28;20220;-70
2023/07/25 06:10:38;;;;;;;0.60;0.60;;;18.60;99.90;;;;;;5055813;28;20728;-71
2023/07/25 06:13:04;;;;;;;1.37;0.77;;;18.60;99.90;;;;;;5055836;28;20190;-71
2023/07/25 06:15:33;;;;;;;0.80;0.53;;;18.40;99.90;;;;;;5055416;28;20512;-70
2023/07/25 06:18:00;;;;;;;1.17;1.10;;;18.20;99.90;;;;;;5055267;28;20417;-72
2023/07/25 06:20:26;;;;;;;0.77;0.77;;;18.00;99.90;;;;;;5055654;28;20409;-68
2023/07/25 06:22:52;;;;;;;0.63;0.63;;;;;;;;;;5053288;28;20413;-69
2023/07/25 06:25:18;;;;;;;0.30;0.30;;;17.80;99.90;;;;;;5055572;28;20163;-69
2023/07/25 06:27:43;;;;;;;2.13;1.10;;;17.30;99.90;;;;;;5054929;28;20412;-69
2023/07/25 06:30:09;;;;;;;0.40;0.40;;;17.40;99.90;;;;;;5054049;28;20439;-69
2023/07/25 06:32:37;;;;;;;1.53;0.93;;;17.40;99.90;;;;;;5054564;28;20198;-69
2023/07/25 06:35:03;;;;;;;0.40;0.40;;;17.50;99.90;;;;;;5054988;28;20459;-69
2023/07/25 06:37:29;;;;;;;0.40;0.40;;;17.60;99.90;;;;;;5055104;28;20443;-69
2023/07/25 06:39:55;;;;;;;1.10;0.90;;;17.80;99.90;;;;;;5054732;28;20985;-69
2023/07/25 06:42:21;;;;;;;1.30;1.20;;;17.80;99.90;;;;;;5054505;28;20235;-68
2023/07/25 06:44:46;;;;;;;0.50;0.50;;;17.60;99.90;;;;;;5054722;28;20405;-69
2023/07/25 06:47:12;;;;;;;0.83;0.47;;;17.60;99.90;;;;;;5053380;28;20173;-68
2023/07/25 06:49:37;;;;;;;1.00;0.77;;;17.70;99.90;;;;;;5053570;28;20213;-68
2023/07/25 06:52:03;;;;;;;0.50;0.50;;;17.70;99.90;;;;;;5054016;28;20194;-69
2023/07/25 06:54:29;;;;;;;0.40;0.40;;;17.60;99.90;;;;;;5053309;28;20765;-69
2023/07/25 06:56:54;;;;;;;0.90;0.67;;;17.60;99.90;;;;;;5054399;28;20177;-69
2023/07/25 06:59:20;;;;;;;0.80;0.80;;;17.50;99.90;;;;;;5054129;28;20202;-68
2023/07/25 07:01:45;;;;;;;0.60;0.40;;;17.40;99.90;;;;;;5054091;28;20257;-69
2023/07/25 07:04:11;;;;;;;0.70;0.70;;;17.40;99.90;;;;;;5054194;28;20198;-69
2023/07/25 07:06:37;;;;;;;0.97;0.80;;;17.50;99.90;;;;;;5053579;28;20201;-69
2023/07/25 07:09:02;;;;;;;0.60;0.60;;;17.50;99.90;;;;;;5052513;28;20192;-68
2023/07/25 07:11:28;;;;;;;1.13;1.00;;;17.60;99.90;;;;;;5053049;28;20287;-69
2023/07/25 07:13:54;;;;;;;1.00;1.00;;;17.70;99.90;;;;;;5052219;28;20166;-69
2023/07/25 07:16:19;;;;;;;0.30;0.30;;;17.90;99.90;;;;;;5053497;28;20162;-69
2023/07/25 07:18:45;;;;;;;0.40;0.40;;;18.20;99.90;;;;;;5053278;28;20224;-69
2023/07/25 07:21:11;;;;;;;2.63;1.43;;;18.30;99.90;;;;;;5053176;28;20542;-70
2023/07/25 07:23:36;;;;;;;0.80;0.80;;;18.30;99.90;;;;;;5054258;28;20653;-68
2023/07/25 07:26:02;;;;;;;0.50;0.50;;;18.30;99.90;;;;;;5054397;28;20170;-69
2023/07/25 07:28:29;;;;;;;0.50;0.50;;;18.30;99.90;;;;;;5054167;28;20210;-69
2023/07/25 07:30:55;;;;;;;0.80;0.80;;;18.30;99.90;;;;;;5053609;28;20222;-69
2023/07/25 07:33:21;;;;;;;0.97;0.70;;;18.30;99.90;;;;;;5053427;28;20447;-70
2023/07/25 07:35:46;;;;;;;0.80;0.80;;;18.30;99.90;;;;;;5053965;28;20166;-70
2023/07/25 07:38:12;;;;;;;0.93;0.93;;;18.50;99.90;;;;;;5053759;28;20633;-70
2023/07/25 07:40:38;;;;;;;0.60;0.60;;;18.70;99.90;;;;;;5054197;28;20170;-70
2023/07/25 07:43:04;;;;;;;0.40;0.40;;;18.80;99.90;;;;;;5054045;28;20182;-70
2023/07/25 07:45:33;;;;;;;0.43;0.43;;;18.60;99.70;;;;;;5053669;28;20323;-70
2023/07/25 07:48:00;;;;;;;1.10;0.77;;;18.90;99.90;;;;;;5053390;28;20572;-70
2023/07/25 07:50:28;;;;;;;0.80;0.80;;;18.90;99.90;;;;;;5053614;28;20767;-69
2023/07/25 07:52:55;;;;;;;1.23;0.70;;;18.90;99.90;;;;;;5052231;28;20554;-69
2023/07/25 07:55:21;;;;;;;2.10;1.27;;;19.30;99.90;;;;;;5053047;28;20412;-70
2023/07/25 07:57:47;;;;;;;0.50;0.50;;;20.10;99.90;;;;;;5053347;28;20185;-70
2023/07/25 08:00:14;;;;;;;0.40;0.40;;;20.00;97.00;;;;;;5051985;28;20414;-70
2023/07/25 08:02:41;;;;;;;0.40;0.40;;;20.70;97.70;;;;;;5053374;28;20179;-70
2023/07/25 08:05:07;;;;;;;0.60;0.57;;;21.30;96.10;;;;;;5052757;28;20416;-70
2023/07/25 08:07:33;;;;;;;2.70;0.83;;;21.60;96.10;;;;;;5053380;28;20417;-69
2023/07/25 08:09:59;;;;;;;2.50;0.50;;;21.30;94.60;;;;;;5053736;28;20970;-69
2023/07/25 08:12:25;;;;;;;0.90;0.70;;;21.30;95.10;;;;;;5051861;28;20223;-70
2023/07/25 08:14:51;;;;;;;0.50;0.47;;;21.50;93.40;;;;;;5053510;28;20180;-70
2023/07/25 08:17:18;;;;;;;0.70;0.70;;;21.60;92.50;;;;;;5052043;28;20407;-69
2023/07/25 08:19:44;;;;;;;0.57;0.57;;;21.40;94.00;;;;;;5053470;28;20427;-71
2023/07/25 08:22:10;;;;;;;0.70;0.60;;;;;;;;;;5052935;28;20410;-69
2023/07/25 08:24:36;;;;;;;0.50;0.50;;;20.70;93.50;;;;;;5053284;28;20444;-70
2023/07/25 08:27:02;;;;;;;1.00;0.60;;;21.00;96.00;;;;;;5053300;28;20404;-70
2023/07/25 08:29:28;;;;;;;0.67;0.60;;;21.70;94.70;;;;;;5053277;28;20900;-69
2023/07/25 08:31:54;;;;;;;2.93;1.47;;;22.10;93.50;;;;;;5053173;28;20247;-69
2023/07/25 08:34:20;;;;;;;1.63;1.20;;;22.00;94.10;;;;;;5053305;28;20186;-69
2023/07/25 08:36:46;;;;;;;0.77;0.77;;;21.70;94.20;;;;;;5052160;28;20178;-70
2023/07/25 08:39:12;;;;;;;0.73;0.60;;;21.40;95.10;;;;;;5052274;28;20923;-69
2023/07/25 08:41:50;;;;;;;0.70;0.50;;;21.10;93.20;;;;;;5052530;28;20422;-70
2023/07/25 08:44:19;;;;;;;1.07;0.60;;;20.90;94.50;;;;;;5053543;28;20227;-70
2023/07/25 08:46:46;;;;;;;0.50;0.50;;;20.90;96.10;;;;;;5057162;28;20439;-69
2023/07/25 08:49:15;;;;;;;0.83;0.40;;;21.80;93.70;;;;;;5056873;28;20436;-71
2023/07/25 08:51:43;;;;;;;0.70;0.70;;;24.00;93.40;;;;;;5056620;28;20935;-70
2023/07/25 08:54:36;;;;;;;1.40;0.60;;;26.40;83.70;;;;;;5056740;28;20396;-70
2023/07/25 08:57:02;;;;;;;0.70;0.70;;;28.40;75.70;;;;;;5056985;28;20401;-70
2023/07/25 08:59:28;;;;;;;0.80;0.70;;;29.10;72.30;;;;;;5056912;28;20447;-70
2023/07/25 09:01:54;;;;;;;0.67;0.67;;;28.60;67.70;;;;;;5056429;28;20416;-70
2023/07/25 09:04:24;;;;;;;0.80;0.80;;;27.90;67.80;;;;;;5057061;28;20177;-69
2023/07/25 09:06:49;;;;;;;0.53;0.53;;;26.70;72.50;;;;;;5056726;28;20412;-70
2023/07/25 09:09:15;;;;;;;0.40;0.40;;;25.10;77.70;;;;;;5056620;28;20515;-70
2023/07/25 09:11:45;;;;;;;0.70;0.40;;;24.00;83.80;;;;;;5056274;28;20206;-70
2023/07/25 09:14:12;;;;;;;1.10;1.00;;;23.00;88.50;;;;;;5053895;28;20174;-70
2023/07/25 09:16:38;;;;;;;0.60;0.60;;;21.40;91.50;;;;;;5056434;28;20502;-70
2023/07/25 09:19:04;;;;;;;0.40;0.40;;;20.70;94.90;;;;;;5056283;28;20197;-70
2023/07/25 09:21:29;;;;;;;0.57;0.57;;;20.20;95.80;;;;;;5056103;28;20646;-70
2023/07/25 09:23:59;;;;;;;0.30;0.30;;;19.90;95.30;;;;;;5056096;28;20175;-70
2023/07/25 09:26:30;;;;;;;0.40;0.40;;;19.70;96.80;;;;;;5056193;28;20199;-70
2023/07/25 09:28:57;;;;;;;1.23;1.23;;;19.70;97.30;;;;;;5056209;28;20963;-70
2023/07/25 09:31:25;;;;;;;0.47;0.47;;;19.70;98.40;;;;;;5055798;28;20483;-69
2023/07/25 09:33:53;;;;;;;0.60;0.50;;;19.60;98.00;;;;;;5054668;28;20901;-70
2023/07/25 09:36:19;;;;;;;0.50;0.50;;;19.50;98.00;;;;;;5055980;28;20829;-68
2023/07/25 09:38:54;;;;;;;0.50;0.50;;;19.20;98.40;;;;;;5055737;28;20431;-70
2023/07/25 09:41:21;;;;;;;0.80;0.80;;;19.40;99.60;;;;;;5055661;28;20417;-69
2023/07/25 09:43:47;;;;;;;0.40;0.40;;;19.40;98.30;;;;;;5055607;28;20895;-70
2023/07/25 09:46:13;;;;;;;0.90;0.90;;;19.30;98.50;;;;;;5055643;28;20442;-69
2023/07/25 09:48:47;;;;;;;0.60;0.60;;;18.90;98.40;;;;;;5055642;28;20197;-69
2023/07/25 09:51:14;;;;;;;0.73;0.60;;;18.90;99.50;;;;;;5055304;28;20275;-70
2023/07/25 09:53:44;;;;;;;0.77;0.77;;;19.10;99.90;;;;;;5055714;28;20777;-69
2023/07/25 09:56:11;;;;;;;0.47;0.47;;;19.30;97.70;;;;;;5054984;28;20424;-70
2023/07/25 09:58:37;;;;;;;0.50;0.50;;;19.30;97.50;;;;;;5055177;28;20528;-70
2023/07/25 10:01:04;;;;;;;0.60;0.60;;;19.60;97.40;;;;;;5055160;28;20408;-68
2023/07/25 10:03:30;;;;;;;4.20;1.13;;;19.80;97.20;;;;;;5055353;28;20768;-70
2023/07/25 10:05:57;;;;;;;0.60;0.57;;;19.90;96.70;;;;;;5055545;28;20396;-70
2023/07/25 10:08:25;;;;;;;0.40;0.40;;;19.90;97.90;;;;;;5055099;28;20438;-70
2023/07/25 10:10:51;;;;;;;0.50;0.40;;;20.50;97.30;;;;;;5054976;28;20416;-69
2023/07/25 10:13:17;;;;;;;0.40;0.40;;;21.30;98.70;;;;;;5055215;28;20448;-70
2023/07/25 10:15:43;;;;;;;0.70;0.50;;;21.70;95.20;;;;;;5055098;28;20519;-69
2023/07/25 10:18:20;;;;;;;2.77;0.70;;;21.80;95.30;;;;;;5054982;28;20190;-70
2023/07/25 10:20:50;;;;;;;1.80;1.73;;;22.10;94.60;;;;;;5054942;28;20166;-70
2023/07/25 10:23:16;;;;;;;0.50;0.50;;;22.40;94.90;;;;;;5055083;28;20405;-69
2023/07/25 10:25:42;;;;;;;0.50;0.50;;;22.50;93.70;;;;;;5054848;28;20527;-70
2023/07/25 10:28:08;;;;;;;0.60;0.60;;;22.80;93.50;;;;;;5054834;28;20576;-70
2023/07/25 10:30:45;;;;;;;0.50;0.50;;;22.90;92.60;;;;;;5053641;28;20201;-70
2023/07/25 10:33:15;;;;;;;0.50;0.50;;;22.70;90.40;;;;;;5054842;28;20525;-69
2023/07/25 10:35:50;;;;;;;0.50;0.40;;;22.60;91.30;;;;;;5054929;28;20415;-70
2023/07/25 10:38:23;;;;;;;0.60;0.57;;;22.60;92.10;;;;;;5054680;28;20435;-69
2023/07/25 10:40:53;;;;;;;0.93;0.93;;;22.90;91.00;;;;;;5054418;28;20416;-69
2023/07/25 10:43:21;;;;;;;0.80;0.50;;;23.10;91.00;;;;;;5054506;28;20415;-70
2023/07/25 10:45:49;;;;;;;0.73;0.70;;;23.10;92.00;;;;;;5054695;28;20508;-70
2023/07/25 10:48:34;;;;;;;0.70;0.70;;;23.30;90.30;;;;;;5054403;28;20490;-70
2023/07/25 10:51:06;;;;;;;0.60;0.60;;;23.30;89.50;;;;;;5054054;28;20432;-69
2023/07/25 10:53:33;;;;;;;0.80;0.50;;;23.40;90.30;;;;;;5054677;28;20425;-69
2023/07/25 10:56:05;;;;;;;0.70;0.70;;;23.30;90.50;;;;;;5054426;28;20863;-70
2023/07/25 10:58:31;;;;;;;0.53;0.53;;;23.00;92.20;;;;;;5052932;28;20425;-69
2023/07/25 11:00:58;;;;;;;0.67;0.50;;;22.90;93.30;;;;;;5054201;28;20405;-70
2023/07/25 11:03:27;;;;;;;1.87;0.60;;;22.60;91.40;;;;;;5054186;28;20930;-70
2023/07/25 11:06:13;;;;;;;0.50;0.50;;;22.40;93.00;;;;;;5054717;28;20507;-70
2023/07/25 11:08:40;;;;;;;1.27;0.80;;;22.30;93.40;;;;;;5053174;28;21003;-70
2023/07/25 11:11:10;;;;;;;0.40;0.40;;;22.50;92.70;;;;;;5054326;28;20454;-70
2023/07/25 11:13:38;;;;;;;0.30;0.30;;;22.70;91.40;;;;;;5054698;28;20416;-70
2023/07/25 11:16:05;;;;;;;0.40;0.40;;;22.80;91.40;;;;;;5054112;28;20800;-70
2023/07/25 11:18:37;;;;;;;0.80;0.80;;;23.10;90.80;;;;;;5054166;28;20446;-68
2023/07/25 11:21:08;;;;;;;0.40;0.40;;;23.40;90.00;;;;;;5054035;28;20405;-70
2023/07/25 11:23:36;;;;;;;0.40;0.40;;;23.60;92.10;;;;;;5053895;28;20375;-70
2023/07/25 11:26:03;;;;;;;1.43;0.50;;;23.50;88.60;;;;;;5054423;28;20403;-70
2023/07/25 11:28:29;;;;;;;0.40;0.40;;;23.30;91.50;;;;;;5054071;28;20433;-69
2023/07/25 11:30:58;;;;;;;0.60;0.60;;;23.50;93.10;;;;;;5053530;28;20466;-70
2023/07/25 11:33:24;;;;;;;0.80;0.80;;;23.20;91.40;;;;;;5053804;28;20187;-70
2023/07/25 11:35:56;;;;;;;0.47;0.47;;;23.20;92.20;;;;;;5053466;28;20454;-69
2023/07/25 11:38:23;;;;;;;2.57;0.73;;;22.90;92.60;;;;;;5052317;28;20718;-69
2023/07/25 11:40:55;;;;;;;0.50;0.50;;;22.60;92.20;;;;;;5051931;28;20405;-70
2023/07/25 11:43:21;;;;;;;0.77;0.60;;;22.50;91.20;;;;;;5053460;28;20522;-69
2023/07/25 11:45:48;;;;;;;0.40;0.40;;;22.10;91.00;;;;;;5053567;28;20393;-70
2023/07/25 11:48:16;;;;;;;0.50;0.40;;;22.10;91.70;;;;;;5053569;28;20421;-69
2023/07/25 11:50:43;;;;;;;0.80;0.70;;;22.10;93.30;;;;;;5053158;28;20425;-70
2023/07/25 11:53:09;;;;;;;1.07;1.00;;;22.30;91.00;;;;;;5053384;28;20923;-70
2023/07/25 11:55:36;;;;;;;0.60;0.40;;;22.40;88.60;;;;;;5053567;28;20856;-70
2023/07/25 11:58:02;;;;;;;0.40;0.40;;;22.60;92.20;;;;;;5053623;28;20777;-70
2023/07/25 12:00:41;;;;;;;0.60;0.60;;;22.80;89.70;;;;;;5053460;28;20449;-69
2023/07/25 12:03:23;;;;;;;0.50;0.40;;;23.00;91.10;;;;;;5053479;28;20404;-70
2023/07/25 12:05:58;;;;;;;0.60;0.60;;;22.80;90.10;;;;;;5052703;28;20925;-69
2023/07/25 12:08:34;;;;;;;0.60;0.47;;;22.70;92.00;;;;;;5053088;28;20446;-69
2023/07/25 12:11:04;;;;;;;0.40;0.40;;;22.30;89.80;;;;;;5053011;28;20821;-69
2023/07/25 12:13:30;;;;;;;0.50;0.50;;;21.70;89.60;;;;;;5053446;28;20841;-70
2023/07/25 12:15:57;;;;;;;0.40;0.40;;;20.80;88.20;;;;;;5053215;28;20500;-69
2023/07/25 12:18:35;;;;;;;0.97;0.73;;;20.40;91.40;;;;;;5053202;28;20439;-70
2023/07/25 12:21:03;;;;;;;0.70;0.60;;;19.90;92.00;;;;;;5056787;28;20428;-70
2023/07/25 12:23:40;;;;;;;0.60;0.47;;;19.30;95.00;;;;;;5056070;28;20832;-69
2023/07/25 12:32:51;;;;;;;0.50;0.50;;;17.50;95.40;;;;;;5055061;28;21074;-69
2023/07/25 12:35:17;;;;;;;0.40;0.40;;;17.20;97.30;;;;;;5057400;28;20404;-69
2023/07/25 12:37:42;;;;;;;0.50;0.50;;;17.00;99.90;;;;;;5056035;28;20946;-71
2023/07/25 12:40:08;;;;;;;0.73;0.43;;;17.10;98.20;;;;;;5056468;28;20254;-68
2023/07/25 12:42:34;;;;;;;0.60;0.40;;;17.30;98.50;;;;;;5057083;28;20178;-70
2023/07/25 12:45:05;;;;;;;0.83;0.70;;;17.40;99.40;;;;;;5055428;28;20818;-69
2023/07/25 12:47:32;;;;;;;0.30;0.30;;;17.60;98.50;;;;;;5056936;28;20613;-70
2023/07/25 12:49:58;;;;;;;2.30;0.83;;;17.80;97.50;;;;;;5056961;28;20456;-69
2023/07/25 12:52:23;;;;;;;0.30;0.30;;;17.80;96.90;;;;;;5056496;28;20463;-70